sensor_id;sensor_type;location;lat;lon;timestamp;pressure;altitude;pressure_sealevel;temperature;humidity
35908;BME280;22003;50.320;8.054;2024-01-30T00:00:28;101031.22;;;-1.53;100.00
35908;BME280;22003;50.320;8.054;2024-01-30T00:02:53;101022.59;;;-1.58;100.00
35908;BME280;22003;50.320;8.054;2024-01-30T00:05:19;101028.56;;;-1.50;100.00
35908;BME280;22003;50.320;8.054;2024-01-30T00:07:44;101029.56;;;-1.64;100.00
35908;BME280;22003;50.320;8.054;2024-01-30T00:10:09;101025.88;;;-1.40;100.00
35908;BME280;22003;50.320;8.054;2024-01-30T00:12:35;101021.47;;;-1.27;100.00
35908;BME280;22003;50.320;8.054;2024-01-30T00:15:00;101022.25;;;-1.19;100.00
35908;BME280;22003;50.320;8.054;2024-01-30T00:17:25;101018.69;;;-1.09;100.00
35908;BME280;22003;50.320;8.054;2024-01-30T00:19:51;101012.72;;;-1.20;100.00
35908;BME280;22003;50.320;8.054;2024-01-30T00:22:17;101023.22;;;-1.30;100.00
35908;BME280;22003;50.320;8.054;2024-01-30T00:24:42;101038.91;;;-1.41;100.00
35908;BME280;22003;50.320;8.054;2024-01-30T00:27:08;101028.53;;;-1.46;100.00
35908;BME280;22003;50.320;8.054;2024-01-30T00:29:33;101032.13;;;-1.59;100.00
35908;BME280;22003;50.320;8.054;2024-01-30T00:31:59;101034.75;;;-1.64;100.00
35908;BME280;22003;50.320;8.054;2024-01-30T00:34:25;101033.94;;;-1.70;100.00
35908;BME280;22003;50.320;8.054;2024-01-30T00:36:50;101026.19;;;-1.75;100.00
35908;BME280;22003;50.320;8.054;2024-01-30T00:39:15;101038.25;;;-1.68;100.00
35908;BME280;22003;50.320;8.054;2024-01-30T00:41:41;101040.94;;;-1.77;100.00
35908;BME280;22003;50.320;8.054;2024-01-30T00:44:06;101031.41;;;-1.79;100.00
35908;BME280;22003;50.320;8.054;2024-01-30T00:46:31;101035.72;;;-1.75;100.00
35908;BME280;22003;50.320;8.054;2024-01-30T00:48:57;101039.19;;;-1.79;100.00
35908;BME280;22003;50.320;8.054;2024-01-30T00:51:22;101035.75;;;-1.81;100.00
35908;BME280;22003;50.320;8.054;2024-01-30T00:53:47;101035.72;;;-1.77;100.00
35908;BME280;22003;50.320;8.054;2024-01-30T00:56:12;101029.63;;;-1.73;100.00
35908;BME280;22003;50.320;8.054;2024-01-30T00:58:38;101034.91;;;-1.85;100.00
35908;BME280;22003;50.320;8.054;2024-01-30T01:01:03;101030.59;;;-1.88;100.00
35908;BME280;22003;50.320;8.054;2024-01-30T01:03:29;101029.72;;;-1.87;100.00
35908;BME280;22003;50.320;8.054;2024-01-30T01:05:54;101025.41;;;-1.88;100.00
35908;BME280;22003;50.320;8.054;2024-01-30T01:08:19;101023.56;;;-1.73;100.00
35908;BME280;22003;50.320;8.054;2024-01-30T01:10:45;101029.66;;;-1.79;100.00
35908;BME280;22003;50.320;8.054;2024-01-30T01:13:10;101037.47;;;-1.77;100.00
35908;BME280;22003;50.320;8.054;2024-01-30T01:15:36;101027.94;;;-1.80;100.00
35908;BME280;22003;50.320;8.054;2024-01-30T01:18:02;101026.19;;;-1.75;100.00
35908;BME280;22003;50.320;8.054;2024-01-30T01:20:27;101027.78;;;-1.58;100.00
35908;BME280;22003;50.320;8.054;2024-01-30T01:22:52;101023.47;;;-1.61;100.00
35908;BME280;22003;50.320;8.054;2024-01-30T01:25:18;101019.06;;;-1.51;100.00
35908;BME280;22003;50.320;8.054;2024-01-30T01:27:43;101032.88;;;-1.46;100.00
35908;BME280;22003;50.320;8.054;2024-01-30T01:30:10;101030.28;;;-1.43;100.00
35908;BME280;22003;50.320;8.054;2024-01-30T01:32:36;101019.94;;;-1.52;100.00
35908;BME280;22003;50.320;8.054;2024-01-30T01:35:03;101024.38;;;-1.68;100.00
35908;BME280;22003;50.320;8.054;2024-01-30T01:37:30;101022.69;;;-1.71;100.00
35908;BME280;22003;50.320;8.054;2024-01-30T01:39:56;101016.63;;;-1.70;100.00
35908;BME280;22003;50.320;8.054;2024-01-30T01:42:21;101016.69;;;-1.83;100.00
35908;BME280;22003;50.320;8.054;2024-01-30T01:44:47;101016.75;;;-1.87;100.00
35908;BME280;22003;50.320;8.054;2024-01-30T01:47:12;101009.00;;;-1.97;100.00
35908;BME280;22003;50.320;8.054;2024-01-30T01:49:38;101015.00;;;-1.89;100.00
35908;BME280;22003;50.320;8.054;2024-01-30T01:52:04;101021.94;;;-1.88;100.00
35908;BME280;22003;50.320;8.054;2024-01-30T01:54:29;100953.69;;;-2.12;100.00
35908;BME280;22003;50.320;8.054;2024-01-30T01:56:55;101015.00;;;-1.86;100.00
35908;BME280;22003;50.320;8.054;2024-01-30T01:59:23;101007.28;;;-1.97;100.00
35908;BME280;22003;50.320;8.054;2024-01-30T02:01:48;101011.63;;;-2.00;100.00
35908;BME280;22003;50.320;8.054;2024-01-30T02:04:14;101001.19;;;-1.91;100.00
35908;BME280;22003;50.320;8.054;2024-01-30T02:06:40;101005.53;;;-1.93;100.00
35908;BME280;22003;50.320;8.054;2024-01-30T02:09:05;100998.59;;;-1.91;100.00
35908;BME280;22003;50.320;8.054;2024-01-30T02:11:31;101003.81;;;-1.97;100.00
35908;BME280;22003;50.320;8.054;2024-01-30T02:14:02;101009.84;;;-1.95;100.00
35908;BME280;22003;50.320;8.054;2024-01-30T02:16:27;101007.25;;;-1.95;100.00
35908;BME280;22003;50.320;8.054;2024-01-30T02:18:53;101012.41;;;-1.89;100.00
35908;BME280;22003;50.320;8.054;2024-01-30T02:21:19;101019.38;;;-1.91;100.00
35908;BME280;22003;50.320;8.054;2024-01-30T02:23:46;100946.84;;;-2.23;100.00
35908;BME280;22003;50.320;8.054;2024-01-30T02:26:12;100999.03;;;-1.40;100.00
35908;BME280;22003;50.320;8.054;2024-01-30T02:28:37;101001.84;;;-1.65;100.00
35908;BME280;22003;50.320;8.054;2024-01-30T02:31:04;100995.81;;;-1.70;100.00
35908;BME280;22003;50.320;8.054;2024-01-30T02:33:29;100997.53;;;-1.64;100.00
35908;BME280;22003;50.320;8.054;2024-01-30T02:35:54;101005.28;;;-1.60;100.00
35908;BME280;22003;50.320;8.054;2024-01-30T02:38:20;100998.44;;;-1.71;100.00
35908;BME280;22003;50.320;8.054;2024-01-30T02:40:45;100994.13;;;-1.71;100.00
35908;BME280;22003;50.320;8.054;2024-01-30T02:43:10;101007.91;;;-1.67;100.00
35908;BME280;22003;50.320;8.054;2024-01-30T02:45:35;100994.78;;;-1.47;100.00
35908;BME280;22003;50.320;8.054;2024-01-30T02:48:01;101000.84;;;-1.47;100.00
35908;BME280;22003;50.320;8.054;2024-01-30T02:50:26;100997.44;;;-1.55;100.00
35908;BME280;22003;50.320;8.054;2024-01-30T02:52:51;100993.19;;;-1.64;100.00
35908;BME280;22003;50.320;8.054;2024-01-30T02:55:17;100992.34;;;-1.66;100.00
35908;BME280;22003;50.320;8.054;2024-01-30T02:57:45;100988.88;;;-1.66;100.00
35908;BME280;22003;50.320;8.054;2024-01-30T03:00:11;100986.38;;;-1.77;100.00
35908;BME280;22003;50.320;8.054;2024-01-30T03:02:36;100982.94;;;-1.85;100.00
35908;BME280;22003;50.320;8.054;2024-01-30T03:05:02;100991.56;;;-1.80;100.00
35908;BME280;22003;50.320;8.054;2024-01-30T03:07:29;100982.06;;;-1.84;100.00
35908;BME280;22003;50.320;8.054;2024-01-30T03:09:54;100975.13;;;-1.80;100.00
35908;BME280;22003;50.320;8.054;2024-01-30T03:12:20;100981.22;;;-1.83;100.00
35908;BME280;22003;50.320;8.054;2024-01-30T03:14:46;100984.63;;;-1.78;100.00
35908;BME280;22003;50.320;8.054;2024-01-30T03:17:11;100993.19;;;-1.64;100.00
35908;BME280;22003;50.320;8.054;2024-01-30T03:19:36;100937.81;;;-1.73;100.00
35908;BME280;22003;50.320;8.054;2024-01-30T03:22:01;100987.97;;;-1.61;100.00
35908;BME280;22003;50.320;8.054;2024-01-30T03:24:27;100989.69;;;-1.63;100.00
35908;BME280;22003;50.320;8.054;2024-01-30T03:26:53;100987.22;;;-1.78;100.00
35908;BME280;22003;50.320;8.054;2024-01-30T03:29:18;100984.59;;;-1.75;100.00
35908;BME280;22003;50.320;8.054;2024-01-30T03:31:43;100989.84;;;-1.81;100.00
35908;BME280;22003;50.320;8.054;2024-01-30T03:34:09;100981.22;;;-1.84;100.00
35908;BME280;22003;50.320;8.054;2024-01-30T03:36:34;100986.38;;;-1.80;100.00
35908;BME280;22003;50.320;8.054;2024-01-30T03:39:00;100975.13;;;-1.83;100.00
35908;BME280;22003;50.320;8.054;2024-01-30T03:41:25;100977.75;;;-1.85;100.00
35908;BME280;22003;50.320;8.054;2024-01-30T03:43:51;100976.00;;;-1.84;100.00
35908;BME280;22003;50.320;8.054;2024-01-30T03:46:16;100976.81;;;-1.72;100.00
35908;BME280;22003;50.320;8.054;2024-01-30T03:48:41;100977.59;;;-1.64;100.00
35908;BME280;22003;50.320;8.054;2024-01-30T03:51:07;100976.75;;;-1.67;100.00
35908;BME280;22003;50.320;8.054;2024-01-30T03:53:32;100975.88;;;-1.68;100.00
35908;BME280;22003;50.320;8.054;2024-01-30T03:55:57;100979.28;;;-1.60;100.00
35908;BME280;22003;50.320;8.054;2024-01-30T03:58:23;100979.25;;;-1.53;100.00
35908;BME280;22003;50.320;8.054;2024-01-30T04:00:48;100993.16;;;-1.61;100.00
35908;BME280;22003;50.320;8.054;2024-01-30T04:03:16;100981.06;;;-1.65;100.00
35908;BME280;22003;50.320;8.054;2024-01-30T04:05:42;100984.50;;;-1.60;100.00
35908;BME280;22003;50.320;8.054;2024-01-30T04:08:08;100969.78;;;-1.62;100.00
35908;BME280;22003;50.320;8.054;2024-01-30T04:10:33;100971.56;;;-1.69;100.00
35908;BME280;22003;50.320;8.054;2024-01-30T04:12:59;100972.38;;;-1.64;100.00
35908;BME280;22003;50.320;8.054;2024-01-30T04:15:25;100968.97;;;-1.66;100.00
35908;BME280;22003;50.320;8.054;2024-01-30T04:17:50;100971.56;;;-1.66;100.00
35908;BME280;22003;50.320;8.054;2024-01-30T04:20:15;100971.59;;;-1.73;100.00
35908;BME280;22003;50.320;8.054;2024-01-30T04:22:44;100974.28;;;-1.81;100.00
35908;BME280;22003;50.320;8.054;2024-01-30T04:25:09;100964.75;;;-1.82;100.00
35908;BME280;22003;50.320;8.054;2024-01-30T04:27:35;100974.38;;;-1.96;100.00
35908;BME280;22003;50.320;8.054;2024-01-30T04:30:00;100972.69;;;-2.03;100.00
35908;BME280;22003;50.320;8.054;2024-01-30T04:32:25;100971.88;;;-2.12;100.00
35908;BME280;22003;50.320;8.054;2024-01-30T04:34:51;100976.28;;;-2.21;100.00
35908;BME280;22003;50.320;8.054;2024-01-30T04:37:16;100966.78;;;-2.24;100.00
35908;BME280;22003;50.320;8.054;2024-01-30T04:39:41;100912.59;;;-2.76;100.00
35908;BME280;22003;50.320;8.054;2024-01-30T04:42:07;100966.88;;;-2.37;100.00
35908;BME280;22003;50.320;8.054;2024-01-30T04:44:32;100981.50;;;-2.29;100.00
35908;BME280;22003;50.320;8.054;2024-01-30T04:46:57;100974.63;;;-2.33;100.00
35908;BME280;22003;50.320;8.054;2024-01-30T04:49:26;100967.69;;;-2.31;100.00
35908;BME280;22003;50.320;8.054;2024-01-30T04:51:51;100974.56;;;-2.28;100.00
35908;BME280;22003;50.320;8.054;2024-01-30T04:54:16;100976.31;;;-2.27;100.00
35908;BME280;22003;50.320;8.054;2024-01-30T04:56:42;100973.75;;;-2.30;100.00
35908;BME280;22003;50.320;8.054;2024-01-30T04:59:07;100972.03;;;-2.36;100.00
35908;BME280;22003;50.320;8.054;2024-01-30T05:01:33;100978.06;;;-2.34;100.00
35908;BME280;22003;50.320;8.054;2024-01-30T05:03:59;100978.09;;;-2.37;100.00
35908;BME280;22003;50.320;8.054;2024-01-30T05:06:25;100896.13;;;-2.75;100.00
35908;BME280;22003;50.320;8.054;2024-01-30T05:08:50;100984.00;;;-2.12;100.00
35908;BME280;22003;50.320;8.054;2024-01-30T05:11:16;100977.97;;;-2.17;100.00
35908;BME280;22003;50.320;8.054;2024-01-30T05:13:41;100983.19;;;-2.23;100.00
35908;BME280;22003;50.320;8.054;2024-01-30T05:16:06;100976.31;;;-2.27;100.00
35908;BME280;22003;50.320;8.054;2024-01-30T05:18:32;100939.28;;;-2.55;100.00
35908;BME280;22003;50.320;8.054;2024-01-30T05:20:57;100978.06;;;-2.29;100.00
35908;BME280;22003;50.320;8.054;2024-01-30T05:23:22;100980.63;;;-2.25;100.00
35908;BME280;22003;50.320;8.054;2024-01-30T05:25:47;100970.22;;;-2.20;100.00
35908;BME280;22003;50.320;8.054;2024-01-30T05:28:12;100957.28;;;-2.28;100.00
35908;BME280;22003;50.320;8.054;2024-01-30T05:30:38;100971.03;;;-2.17;100.00
35908;BME280;22003;50.320;8.054;2024-01-30T05:33:03;100971.81;;;-2.01;100.00
35908;BME280;22003;50.320;8.054;2024-01-30T05:35:29;100975.25;;;-1.97;100.00
35908;BME280;22003;50.320;8.054;2024-01-30T05:37:54;100976.13;;;-1.98;100.00
35908;BME280;22003;50.320;8.054;2024-01-30T05:40:19;100971.00;;;-2.09;100.00
35908;BME280;22003;50.320;8.054;2024-01-30T05:42:45;100968.53;;;-2.29;100.00
35908;BME280;22003;50.320;8.054;2024-01-30T05:45:10;100973.72;;;-2.27;100.00
35908;BME280;22003;50.320;8.054;2024-01-30T05:47:35;100965.94;;;-2.29;100.00
35908;BME280;22003;50.320;8.054;2024-01-30T05:50:00;100974.56;;;-2.21;100.00
35908;BME280;22003;50.320;8.054;2024-01-30T05:52:26;100974.50;;;-2.15;100.00
35908;BME280;22003;50.320;8.054;2024-01-30T05:54:51;100976.19;;;-2.04;100.00
35908;BME280;22003;50.320;8.054;2024-01-30T05:57:16;100974.44;;;-2.04;100.00
35908;BME280;22003;50.320;8.054;2024-01-30T05:59:42;100970.06;;;-2.00;100.00
35908;BME280;22003;50.320;8.054;2024-01-30T06:02:10;100972.75;;;-2.09;100.00
35908;BME280;22003;50.320;8.054;2024-01-30T06:04:35;100973.63;;;-2.14;100.00
35908;BME280;22003;50.320;8.054;2024-01-30T06:07:00;100971.94;;;-2.19;100.00
35908;BME280;22003;50.320;8.054;2024-01-30T06:09:27;100979.69;;;-2.10;100.00
35908;BME280;22003;50.320;8.054;2024-01-30T06:11:52;100973.69;;;-2.23;100.00
35908;BME280;22003;50.320;8.054;2024-01-30T06:14:17;100989.16;;;-2.07;100.00
35908;BME280;22003;50.320;8.054;2024-01-30T06:16:42;100976.22;;;-2.12;100.00
35908;BME280;22003;50.320;8.054;2024-01-30T06:19:08;100968.53;;;-2.26;100.00
35908;BME280;22003;50.320;8.054;2024-01-30T06:21:33;100970.00;;;-1.91;100.00
35908;BME280;22003;50.320;8.054;2024-01-30T06:24:01;100977.13;;;-2.16;100.00
35908;BME280;22003;50.320;8.054;2024-01-30T06:26:27;100976.22;;;-2.10;100.00
35908;BME280;22003;50.320;8.054;2024-01-30T06:28:52;100977.09;;;-2.13;100.00
35908;BME280;22003;50.320;8.054;2024-01-30T06:31:17;100979.81;;;-2.39;100.00
35908;BME280;22003;50.320;8.054;2024-01-30T06:33:43;100976.44;;;-2.52;100.00
35908;BME280;22003;50.320;8.054;2024-01-30T06:36:08;100975.63;;;-2.61;100.00
35908;BME280;22003;50.320;8.054;2024-01-30T06:38:33;100984.25;;;-2.58;100.00
35908;BME280;22003;50.320;8.054;2024-01-30T06:40:58;100976.50;;;-2.62;100.00
35908;BME280;22003;50.320;8.054;2024-01-30T06:43:24;100974.78;;;-2.63;100.00
35908;BME280;22003;50.320;8.054;2024-01-30T06:45:49;100978.25;;;-2.68;100.00
35908;BME280;22003;50.320;8.054;2024-01-30T06:48:15;100979.97;;;-2.63;100.00
35908;BME280;22003;50.320;8.054;2024-01-30T06:50:40;100996.44;;;-2.71;100.00
35908;BME280;22003;50.320;8.054;2024-01-30T06:53:06;100970.44;;;-2.58;100.00
35908;BME280;22003;50.320;8.054;2024-01-30T06:55:31;100981.56;;;-2.36;100.00
35908;BME280;22003;50.320;8.054;2024-01-30T06:57:56;100985.09;;;-2.51;100.00
35908;BME280;22003;50.320;8.054;2024-01-30T07:00:21;100972.97;;;-2.51;100.00
35908;BME280;22003;50.320;8.054;2024-01-30T07:02:48;100985.88;;;-2.37;100.00
35908;BME280;22003;50.320;8.054;2024-01-30T07:05:13;100981.47;;;-2.23;100.00
35908;BME280;22003;50.320;8.054;2024-01-30T07:07:39;100976.34;;;-2.32;100.00
35908;BME280;22003;50.320;8.054;2024-01-30T07:10:05;100984.13;;;-2.32;100.00
35908;BME280;22003;50.320;8.054;2024-01-30T07:12:30;100918.53;;;-2.58;100.00
35908;BME280;22003;50.320;8.054;2024-01-30T07:14:56;100985.78;;;-2.20;100.00
35908;BME280;22003;50.320;8.054;2024-01-30T07:17:21;100991.84;;;-2.23;100.00
35908;BME280;22003;50.320;8.054;2024-01-30T07:19:46;100984.03;;;-2.17;100.00
35908;BME280;22003;50.320;8.054;2024-01-30T07:22:12;100985.69;;;-2.06;100.00
35908;BME280;22003;50.320;8.054;2024-01-30T07:24:42;100985.72;;;-2.13;100.00
35908;BME280;22003;50.320;8.054;2024-01-30T07:27:09;100987.47;;;-2.10;100.00
35908;BME280;22003;50.320;8.054;2024-01-30T07:29:35;100986.72;;;-2.27;100.00
35908;BME280;22003;50.320;8.054;2024-01-30T07:32:00;100989.22;;;-2.14;100.00
35908;BME280;22003;50.320;8.054;2024-01-30T07:34:25;100989.25;;;-2.20;100.00
35908;BME280;22003;50.320;8.054;2024-01-30T07:36:50;100995.00;;;-1.75;100.00
35908;BME280;22003;50.320;8.054;2024-01-30T07:39:15;101001.97;;;-1.81;100.00
35908;BME280;22003;50.320;8.054;2024-01-30T07:41:41;100996.03;;;-2.00;100.00
35908;BME280;22003;50.320;8.054;2024-01-30T07:44:06;100990.03;;;-2.05;100.00
35908;BME280;22003;50.320;8.054;2024-01-30T07:46:31;101001.22;;;-1.97;100.00
35908;BME280;22003;50.320;8.054;2024-01-30T07:48:57;100996.84;;;-1.91;100.00
35908;BME280;22003;50.320;8.054;2024-01-30T07:51:22;101005.44;;;-1.81;100.00
35908;BME280;22003;50.320;8.054;2024-01-30T07:53:47;101008.97;;;-1.91;100.00
35908;BME280;22003;50.320;8.054;2024-01-30T07:56:12;101013.25;;;-1.84;100.00
35908;BME280;22003;50.320;8.054;2024-01-30T07:58:38;101013.19;;;-1.78;100.00
35908;BME280;22003;50.320;8.054;2024-01-30T08:01:03;101014.03;;;-1.73;100.00
35908;BME280;22003;50.320;8.054;2024-01-30T08:03:29;101014.69;;;-1.46;100.00
35908;BME280;22003;50.320;8.054;2024-01-30T08:05:54;101004.25;;;-1.39;100.00
35908;BME280;22003;50.320;8.054;2024-01-30T08:08:20;101009.53;;;-1.51;100.00
35908;BME280;22003;50.320;8.054;2024-01-30T08:10:45;101011.06;;;-1.28;100.00
35908;BME280;22003;50.320;8.054;2024-01-30T08:13:10;101018.03;;;-1.32;100.00
35908;BME280;22003;50.320;8.054;2024-01-30T08:15:36;101025.94;;;-1.43;100.00
35908;BME280;22003;50.320;8.054;2024-01-30T08:18:01;101023.22;;;-1.34;100.00
35908;BME280;22003;50.320;8.054;2024-01-30T08:20:26;101029.34;;;-1.38;100.00
35908;BME280;22003;50.320;8.054;2024-01-30T08:22:52;101021.47;;;-1.27;100.00
35908;BME280;22003;50.320;8.054;2024-01-30T08:25:17;101023.09;;;-1.18;100.00
35908;BME280;22003;50.320;8.054;2024-01-30T08:27:43;101024.81;;;-1.14;100.00
35908;BME280;22003;50.320;8.054;2024-01-30T08:30:09;101019.38;;;-0.93;100.00
35908;BME280;22003;50.320;8.054;2024-01-30T08:32:34;101011.41;;;-0.77;100.00
35908;BME280;22003;50.320;8.054;2024-01-30T08:35:00;101012.63;;;-1.09;100.00
35908;BME280;22003;50.320;8.054;2024-01-30T08:37:29;101012.44;;;-0.92;100.00
35908;BME280;22003;50.320;8.054;2024-01-30T08:39:54;100997.00;;;-1.09;100.00
35908;BME280;22003;50.320;8.054;2024-01-30T08:42:19;101013.19;;;-0.81;100.00
35908;BME280;22003;50.320;8.054;2024-01-30T08:44:47;101010.50;;;-0.72;100.00
35908;BME280;22003;50.320;8.054;2024-01-30T08:47:13;101015.78;;;-0.81;100.00
35908;BME280;22003;50.320;8.054;2024-01-30T08:49:38;101012.31;;;-0.80;100.00
35908;BME280;22003;50.320;8.054;2024-01-30T08:52:03;101017.59;;;-0.89;100.00
35908;BME280;22003;50.320;8.054;2024-01-30T08:54:29;101005.34;;;-0.76;100.00
35908;BME280;22003;50.320;8.054;2024-01-30T08:56:54;101018.22;;;-0.66;100.00
35908;BME280;22003;50.320;8.054;2024-01-30T08:59:21;101010.25;;;-0.54;100.00
35908;BME280;22003;50.320;8.054;2024-01-30T09:01:46;101005.94;;;-0.55;100.00
35908;BME280;22003;50.320;8.054;2024-01-30T09:04:12;101015.75;;;-0.76;100.00
35908;BME280;22003;50.320;8.054;2024-01-30T09:06:37;101012.97;;;-0.63;100.00
35908;BME280;22003;50.320;8.054;2024-01-30T09:09:04;101010.22;;;-0.49;100.00
35908;BME280;22003;50.320;8.054;2024-01-30T09:11:30;101027.47;;;-0.42;100.00
35908;BME280;22003;50.320;8.054;2024-01-30T09:13:55;100955.00;;;-0.75;100.00
35908;BME280;22003;50.320;8.054;2024-01-30T09:16:20;101029.25;;;-0.47;100.00
35908;BME280;22003;50.320;8.054;2024-01-30T09:18:45;101031.75;;;-0.39;100.00
35908;BME280;22003;50.320;8.054;2024-01-30T09:21:11;101024.75;;;-0.34;100.00
35908;BME280;22003;50.320;8.054;2024-01-30T09:23:36;101028.16;;;-0.29;100.00
35908;BME280;22003;50.320;8.054;2024-01-30T09:26:01;101039.91;;;0.03;100.00
35908;BME280;22003;50.320;8.054;2024-01-30T09:28:26;101035.53;;;0.03;100.00
35908;BME280;22003;50.320;8.054;2024-01-30T09:30:52;101028.25;;;0.26;100.00
35908;BME280;22003;50.320;8.054;2024-01-30T09:33:17;101030.44;;;-0.03;100.00
35908;BME280;22003;50.320;8.054;2024-01-30T09:35:42;101032.75;;;0.17;100.00
35908;BME280;22003;50.320;8.054;2024-01-30T09:38:07;101021.44;;;0.18;100.00
35908;BME280;22003;50.320;8.054;2024-01-30T09:40:33;101019.16;;;-0.04;100.00
35908;BME280;22003;50.320;8.054;2024-01-30T09:42:58;101025.75;;;0.19;100.00
35908;BME280;22003;50.320;8.054;2024-01-30T09:45:25;101025.66;;;0.25;100.00
35908;BME280;22003;50.320;8.054;2024-01-30T09:47:51;101021.44;;;0.18;100.00
35908;BME280;22003;50.320;8.054;2024-01-30T09:50:18;101025.81;;;0.14;100.00
35908;BME280;22003;50.320;8.054;2024-01-30T09:52:45;100970.22;;;-0.45;100.00
35908;BME280;22003;50.320;8.054;2024-01-30T09:55:11;101033.00;;;0.00;100.00
35908;BME280;22003;50.320;8.054;2024-01-30T09:57:36;101040.53;;;0.18;100.00
35908;BME280;22003;50.320;8.054;2024-01-30T10:00:05;101043.41;;;0.57;100.00
35908;BME280;22003;50.320;8.054;2024-01-30T10:02:34;101029.50;;;0.58;100.00
35908;BME280;22003;50.320;8.054;2024-01-30T10:05:00;101032.13;;;0.57;100.00
35908;BME280;22003;50.320;8.054;2024-01-30T10:07:25;101035.50;;;0.63;100.00
35908;BME280;22003;50.320;8.054;2024-01-30T10:09:51;101036.72;;;0.92;100.00
35908;BME280;22003;50.320;8.054;2024-01-30T10:12:18;101028.06;;;0.91;100.00
35908;BME280;22003;50.320;8.054;2024-01-30T10:14:44;101021.91;;;0.95;100.00
35908;BME280;22003;50.320;8.054;2024-01-30T10:17:11;101034.94;;;0.95;100.00
35908;BME280;22003;50.320;8.054;2024-01-30T10:19:37;101037.91;;;1.22;100.00
35908;BME280;22003;50.320;8.054;2024-01-30T10:22:04;101033.13;;;1.00;100.00
35908;BME280;22003;50.320;8.054;2024-01-30T10:24:29;101030.16;;;1.19;100.00
35908;BME280;22003;50.320;8.054;2024-01-30T10:26:55;101028.19;;;1.30;100.00
35908;BME280;22003;50.320;8.054;2024-01-30T10:29:20;101031.38;;;1.46;100.00
35908;BME280;22003;50.320;8.054;2024-01-30T10:31:45;101025.94;;;1.55;100.00
35908;BME280;22003;50.320;8.054;2024-01-30T10:34:12;101023.81;;;1.74;100.00
35908;BME280;22003;50.320;8.054;2024-01-30T10:36:40;101031.66;;;1.74;100.00
35908;BME280;22003;50.320;8.054;2024-01-30T10:39:08;100973.84;;;1.49;100.00
35908;BME280;22003;50.320;8.054;2024-01-30T10:41:41;101025.75;;;2.04;100.00
35908;BME280;22003;50.320;8.054;2024-01-30T10:44:08;101023.84;;;2.13;100.00
35908;BME280;22003;50.320;8.054;2024-01-30T10:46:35;101022.34;;;2.38;100.00
35908;BME280;22003;50.320;8.054;2024-01-30T10:49:00;100960.69;;;1.53;100.00
35908;BME280;22003;50.320;8.054;2024-01-30T10:51:29;101029.25;;;2.03;100.00
35908;BME280;22003;50.320;8.054;2024-01-30T10:53:55;101026.84;;;1.96;100.00
35908;BME280;22003;50.320;8.054;2024-01-30T10:56:21;101037.34;;;2.67;100.00
35908;BME280;22003;50.320;8.054;2024-01-30T10:58:49;101019.50;;;2.83;100.00
35908;BME280;22003;50.320;8.054;2024-01-30T11:01:14;101034.06;;;2.23;100.00
35908;BME280;22003;50.320;8.054;2024-01-30T11:03:41;101033.41;;;2.49;100.00
35908;BME280;22003;50.320;8.054;2024-01-30T11:06:10;101003.97;;;2.41;100.00
35908;BME280;22003;50.320;8.054;2024-01-30T11:08:37;101021.31;;;3.13;100.00
35908;BME280;22003;50.320;8.054;2024-01-30T11:11:08;101026.63;;;2.76;100.00
35908;BME280;22003;50.320;8.054;2024-01-30T11:13:34;101025.34;;;2.92;100.00
35908;BME280;22003;50.320;8.054;2024-01-30T11:16:01;101024.91;;;3.71;100.00
35908;BME280;22003;50.320;8.054;2024-01-30T11:18:29;101021.09;;;3.83;100.00
35908;BME280;22003;50.320;8.054;2024-01-30T11:20:59;101027.63;;;3.05;100.00
35908;BME280;22003;50.320;8.054;2024-01-30T11:23:27;101025.41;;;2.91;100.00
35908;BME280;22003;50.320;8.054;2024-01-30T11:25:53;101043.63;;;3.27;100.00
35908;BME280;22003;50.320;8.054;2024-01-30T11:28:21;101031.72;;;3.16;100.00
35908;BME280;22003;50.320;8.054;2024-01-30T11:30:46;101035.94;;;2.88;100.00
35908;BME280;22003;50.320;8.054;2024-01-30T11:33:13;101029.44;;;3.03;100.00
35908;BME280;22003;50.320;8.054;2024-01-30T11:35:40;101030.97;;;3.11;100.00
35908;BME280;22003;50.320;8.054;2024-01-30T11:38:08;100944.47;;;2.83;100.00
35908;BME280;22003;50.320;8.054;2024-01-30T11:40:34;101021.72;;;3.60;100.00
35908;BME280;22003;50.320;8.054;2024-01-30T11:43:02;101020.56;;;4.00;100.00
35908;BME280;22003;50.320;8.054;2024-01-30T11:45:30;101017.28;;;4.48;100.00
35908;BME280;22003;50.320;8.054;2024-01-30T11:47:55;101016.34;;;4.50;100.00
35908;BME280;22003;50.320;8.054;2024-01-30T11:50:22;101002.69;;;4.66;100.00
35908;BME280;22003;50.320;8.054;2024-01-30T11:52:48;100999.69;;;5.26;100.00
35908;BME280;22003;50.320;8.054;2024-01-30T11:55:14;101003.94;;;5.30;98.78
35908;BME280;22003;50.320;8.054;2024-01-30T11:57:40;100990.44;;;5.16;98.23
35908;BME280;22003;50.320;8.054;2024-01-30T12:00:05;100997.91;;;5.03;98.92
35908;BME280;22003;50.320;8.054;2024-01-30T12:02:41;100988.19;;;5.54;99.21
35908;BME280;22003;50.320;8.054;2024-01-30T12:05:07;100994.50;;;5.50;97.33
35908;BME280;22003;50.320;8.054;2024-01-30T12:07:33;100981.19;;;5.06;98.49
35908;BME280;22003;50.320;8.054;2024-01-30T12:09:58;100983.50;;;4.90;99.55
35908;BME280;22003;50.320;8.054;2024-01-30T12:12:27;100979.41;;;4.82;100.00
35908;BME280;22003;50.320;8.054;2024-01-30T12:14:53;100967.09;;;4.84;100.00
35908;BME280;22003;50.320;8.054;2024-01-30T12:17:24;100967.06;;;5.09;100.00
35908;BME280;22003;50.320;8.054;2024-01-30T12:19:49;100958.34;;;5.32;100.00
35908;BME280;22003;50.320;8.054;2024-01-30T12:22:15;100955.06;;;5.50;100.00
35908;BME280;22003;50.320;8.054;2024-01-30T12:24:40;100946.47;;;5.68;99.85
35908;BME280;22003;50.320;8.054;2024-01-30T12:27:06;100940.19;;;5.72;99.39
35908;BME280;22003;50.320;8.054;2024-01-30T12:29:34;100937.69;;;6.13;98.92
35908;BME280;22003;50.320;8.054;2024-01-30T12:31:59;100927.59;;;6.02;98.48
35908;BME280;22003;50.320;8.054;2024-01-30T12:34:25;100936.94;;;6.31;96.18